sensor_id;sensor_type;location;lat;lon;timestamp;temperature;humidity
25482;DHT22;13395;50.752;4.268;2022-09-16T00:01:11;16.10;99.90
25482;DHT22;13395;50.752;4.268;2022-09-16T00:03:36;16.10;99.90
25482;DHT22;13395;50.752;4.268;2022-09-16T00:06:02;16.20;99.90
25482;DHT22;13395;50.752;4.268;2022-09-16T00:08:28;16.10;99.90
25482;DHT22;13395;50.752;4.268;2022-09-16T00:10:58;16.00;99.90
25482;DHT22;13395;50.752;4.268;2022-09-16T00:13:23;15.90;99.90
25482;DHT22;13395;50.752;4.268;2022-09-16T00:15:49;16.00;99.90
25482;DHT22;13395;50.752;4.268;2022-09-16T00:18:18;15.90;99.90
25482;DHT22;13395;50.752;4.268;2022-09-16T00:20:45;15.70;99.90
25482;DHT22;13395;50.752;4.268;2022-09-16T00:23:11;15.80;99.90
25482;DHT22;13395;50.752;4.268;2022-09-16T00:25:36;15.70;99.90
25482;DHT22;13395;50.752;4.268;2022-09-16T00:28:02;15.70;99.90
25482;DHT22;13395;50.752;4.268;2022-09-16T00:30:27;15.60;99.90
25482;DHT22;13395;50.752;4.268;2022-09-16T00:32:53;15.70;99.90
25482;DHT22;13395;50.752;4.268;2022-09-16T00:35:18;15.80;99.90
25482;DHT22;13395;50.752;4.268;2022-09-16T00:37:44;15.70;99.90
25482;DHT22;13395;50.752;4.268;2022-09-16T00:40:09;15.50;99.90
25482;DHT22;13395;50.752;4.268;2022-09-16T00:42:36;15.50;99.90
25482;DHT22;13395;50.752;4.268;2022-09-16T00:45:03;15.50;99.90
25482;DHT22;13395;50.752;4.268;2022-09-16T00:50:18;15.40;99.90
25482;DHT22;13395;50.752;4.268;2022-09-16T00:52:44;15.50;99.90
25482;DHT22;13395;50.752;4.268;2022-09-16T00:55:12;15.50;99.90
25482;DHT22;13395;50.752;4.268;2022-09-16T00:57:39;15.40;99.90
25482;DHT22;13395;50.752;4.268;2022-09-16T01:00:06;15.40;99.90
25482;DHT22;13395;50.752;4.268;2022-09-16T01:02:34;15.40;99.90
25482;DHT22;13395;50.752;4.268;2022-09-16T01:05:00;15.40;99.90
25482;DHT22;13395;50.752;4.268;2022-09-16T01:07:33;15.30;99.90
25482;DHT22;13395;50.752;4.268;2022-09-16T01:10:00;15.40;99.90
25482;DHT22;13395;50.752;4.268;2022-09-16T01:12:26;15.40;99.90
25482;DHT22;13395;50.752;4.268;2022-09-16T01:14:52;15.50;99.90
25482;DHT22;13395;50.752;4.268;2022-09-16T01:32:48;15.10;99.90
25482;DHT22;13395;50.752;4.268;2022-09-16T01:35:19;14.90;99.90
25482;DHT22;13395;50.752;4.268;2022-09-16T01:40:29;14.80;99.90
25482;DHT22;13395;50.752;4.268;2022-09-16T01:42:57;14.80;99.90
25482;DHT22;13395;50.752;4.268;2022-09-16T01:55:29;14.80;99.90
25482;DHT22;13395;50.752;4.268;2022-09-16T02:00:22;14.60;99.90
25482;DHT22;13395;50.752;4.268;2022-09-16T02:08:17;14.60;99.90
25482;DHT22;13395;50.752;4.268;2022-09-16T02:11:03;14.60;99.90
25482;DHT22;13395;50.752;4.268;2022-09-16T02:13:35;14.60;99.90
25482;DHT22;13395;50.752;4.268;2022-09-16T02:16:04;14.50;99.90
25482;DHT22;13395;50.752;4.268;2022-09-16T02:18:32;14.30;99.90
25482;DHT22;13395;50.752;4.268;2022-09-16T02:20:59;14.40;99.90
25482;DHT22;13395;50.752;4.268;2022-09-16T02:23:26;14.40;99.90
25482;DHT22;13395;50.752;4.268;2022-09-16T02:25:53;14.40;99.90
25482;DHT22;13395;50.752;4.268;2022-09-16T02:28:21;14.30;99.90
25482;DHT22;13395;50.752;4.268;2022-09-16T02:30:50;14.30;99.90
25482;DHT22;13395;50.752;4.268;2022-09-16T02:33:16;14.30;99.90
25482;DHT22;13395;50.752;4.268;2022-09-16T02:35:42;14.30;99.90
25482;DHT22;13395;50.752;4.268;2022-09-16T02:38:10;14.30;99.90
25482;DHT22;13395;50.752;4.268;2022-09-16T02:40:40;14.20;99.90
25482;DHT22;13395;50.752;4.268;2022-09-16T02:43:06;14.10;99.90
25482;DHT22;13395;50.752;4.268;2022-09-16T02:45:35;14.10;99.90
25482;DHT22;13395;50.752;4.268;2022-09-16T02:48:11;14.10;99.90
25482;DHT22;13395;50.752;4.268;2022-09-16T02:50:40;14.20;99.90
25482;DHT22;13395;50.752;4.268;2022-09-16T02:55:53;14.10;99.90
25482;DHT22;13395;50.752;4.268;2022-09-16T02:58:20;14.10;99.90
25482;DHT22;13395;50.752;4.268;2022-09-16T03:00:46;14.00;99.90
25482;DHT22;13395;50.752;4.268;2022-09-16T03:03:12;14.00;99.90
25482;DHT22;13395;50.752;4.268;2022-09-16T03:05:49;14.10;99.90
25482;DHT22;13395;50.752;4.268;2022-09-16T03:08:24;14.00;99.90
25482;DHT22;13395;50.752;4.268;2022-09-16T03:10:49;14.10;99.90
25482;DHT22;13395;50.752;4.268;2022-09-16T03:13:27;14.10;99.90
25482;DHT22;13395;50.752;4.268;2022-09-16T03:15:59;14.00;99.90
25482;DHT22;13395;50.752;4.268;2022-09-16T03:21:12;13.90;99.90
25482;DHT22;13395;50.752;4.268;2022-09-16T03:28:58;14.20;99.90
25482;DHT22;13395;50.752;4.268;2022-09-16T03:31:29;14.30;99.90
25482;DHT22;13395;50.752;4.268;2022-09-16T03:34:03;14.50;99.90
25482;DHT22;13395;50.752;4.268;2022-09-16T03:36:31;14.50;99.90
25482;DHT22;13395;50.752;4.268;2022-09-16T03:38:59;14.50;99.90
25482;DHT22;13395;50.752;4.268;2022-09-16T03:41:26;14.60;99.90
25482;DHT22;13395;50.752;4.268;2022-09-16T03:43:53;14.50;99.90
25482;DHT22;13395;50.752;4.268;2022-09-16T03:46:19;14.40;99.90
25482;DHT22;13395;50.752;4.268;2022-09-16T03:48:45;14.30;99.90
25482;DHT22;13395;50.752;4.268;2022-09-16T03:51:10;14.30;99.90
25482;DHT22;13395;50.752;4.268;2022-09-16T03:53:36;14.30;99.90
25482;DHT22;13395;50.752;4.268;2022-09-16T03:56:02;14.30;99.90
25482;DHT22;13395;50.752;4.268;2022-09-16T03:58:27;14.30;99.90
25482;DHT22;13395;50.752;4.268;2022-09-16T04:00:53;14.30;99.90
25482;DHT22;13395;50.752;4.268;2022-09-16T04:03:18;14.30;99.90
25482;DHT22;13395;50.752;4.268;2022-09-16T04:05:44;14.30;99.90
25482;DHT22;13395;50.752;4.268;2022-09-16T04:08:09;14.30;99.90
25482;DHT22;13395;50.752;4.268;2022-09-16T04:10:35;14.40;99.90
25482;DHT22;13395;50.752;4.268;2022-09-16T04:13:00;14.30;99.90
25482;DHT22;13395;50.752;4.268;2022-09-16T04:15:26;14.30;99.90
25482;DHT22;13395;50.752;4.268;2022-09-16T04:17:51;14.20;99.90
25482;DHT22;13395;50.752;4.268;2022-09-16T04:20:17;14.10;99.90
25482;DHT22;13395;50.752;4.268;2022-09-16T04:22:44;14.10;99.90
25482;DHT22;13395;50.752;4.268;2022-09-16T04:25:09;14.00;99.90
25482;DHT22;13395;50.752;4.268;2022-09-16T04:27:35;14.10;99.90
25482;DHT22;13395;50.752;4.268;2022-09-16T04:30:00;14.10;99.90
25482;DHT22;13395;50.752;4.268;2022-09-16T04:32:26;14.00;99.90
25482;DHT22;13395;50.752;4.268;2022-09-16T04:34:51;14.00;99.90
25482;DHT22;13395;50.752;4.268;2022-09-16T04:37:17;14.20;99.90
25482;DHT22;13395;50.752;4.268;2022-09-16T04:39:42;14.20;99.90
25482;DHT22;13395;50.752;4.268;2022-09-16T04:42:08;14.20;99.90
25482;DHT22;13395;50.752;4.268;2022-09-16T04:44:36;14.30;99.90
25482;DHT22;13395;50.752;4.268;2022-09-16T04:47:02;14.40;99.90
25482;DHT22;13395;50.752;4.268;2022-09-16T04:49:27;14.30;99.90
25482;DHT22;13395;50.752;4.268;2022-09-16T04:51:53;14.30;99.90
25482;DHT22;13395;50.752;4.268;2022-09-16T04:54:18;14.30;99.90
25482;DHT22;13395;50.752;4.268;2022-09-16T04:56:44;14.30;99.90
25482;DHT22;13395;50.752;4.268;2022-09-16T04:59:09;14.20;99.90
25482;DHT22;13395;50.752;4.268;2022-09-16T05:01:36;14.20;99.90
25482;DHT22;13395;50.752;4.268;2022-09-16T05:04:03;14.20;99.90
25482;DHT22;13395;50.752;4.268;2022-09-16T05:06:30;14.10;99.90
25482;DHT22;13395;50.752;4.268;2022-09-16T05:08:56;14.10;99.90
25482;DHT22;13395;50.752;4.268;2022-09-16T05:11:23;14.10;99.90
25482;DHT22;13395;50.752;4.268;2022-09-16T05:13:49;14.00;99.90
25482;DHT22;13395;50.752;4.268;2022-09-16T05:16:19;14.10;99.90
25482;DHT22;13395;50.752;4.268;2022-09-16T05:18:45;14.10;99.90
25482;DHT22;13395;50.752;4.268;2022-09-16T05:21:13;14.10;99.90
25482;DHT22;13395;50.752;4.268;2022-09-16T05:23:38;14.00;99.90
25482;DHT22;13395;50.752;4.268;2022-09-16T05:26:06;14.00;99.90
25482;DHT22;13395;50.752;4.268;2022-09-16T05:28:32;14.00;99.90
25482;DHT22;13395;50.752;4.268;2022-09-16T05:31:08;13.90;99.90
25482;DHT22;13395;50.752;4.268;2022-09-16T05:33:34;13.90;99.90
25482;DHT22;13395;50.752;4.268;2022-09-16T05:36:03;13.80;99.90
25482;DHT22;13395;50.752;4.268;2022-09-16T05:38:29;13.90;99.90
25482;DHT22;13395;50.752;4.268;2022-09-16T05:40:57;14.00;99.90
25482;DHT22;13395;50.752;4.268;2022-09-16T05:43:22;14.00;99.90
25482;DHT22;13395;50.752;4.268;2022-09-16T05:45:51;14.10;99.90
25482;DHT22;13395;50.752;4.268;2022-09-16T05:48:17;14.10;99.90
25482;DHT22;13395;50.752;4.268;2022-09-16T05:50:49;14.10;99.90
25482;DHT22;13395;50.752;4.268;2022-09-16T05:53:15;14.10;99.90
25482;DHT22;13395;50.752;4.268;2022-09-16T05:55:41;14.20;99.90
25482;DHT22;13395;50.752;4.268;2022-09-16T05:58:06;14.30;99.90
25482;DHT22;13395;50.752;4.268;2022-09-16T06:00:32;14.30;99.90
25482;DHT22;13395;50.752;4.268;2022-09-16T06:02:57;14.30;99.90
25482;DHT22;13395;50.752;4.268;2022-09-16T06:05:23;14.20;99.90
25482;DHT22;13395;50.752;4.268;2022-09-16T06:07:48;14.20;99.90
25482;DHT22;13395;50.752;4.268;2022-09-16T06:10:14;14.20;99.90
25482;DHT22;13395;50.752;4.268;2022-09-16T06:12:39;14.20;99.90
25482;DHT22;13395;50.752;4.268;2022-09-16T06:15:05;14.20;99.90
25482;DHT22;13395;50.752;4.268;2022-09-16T06:17:31;14.30;99.90
25482;DHT22;13395;50.752;4.268;2022-09-16T06:19:57;14.40;99.90
25482;DHT22;13395;50.752;4.268;2022-09-16T06:22:22;14.40;99.90
25482;DHT22;13395;50.752;4.268;2022-09-16T06:24:48;14.60;99.90
25482;DHT22;13395;50.752;4.268;2022-09-16T06:27:14;14.60;99.90
25482;DHT22;13395;50.752;4.268;2022-09-16T06:29:39;14.60;99.90
25482;DHT22;13395;50.752;4.268;2022-09-16T06:32:05;14.60;99.90
25482;DHT22;13395;50.752;4.268;2022-09-16T06:34:30;14.90;99.90
25482;DHT22;13395;50.752;4.268;2022-09-16T06:36:56;14.80;99.90
25482;DHT22;13395;50.752;4.268;2022-09-16T06:39:22;14.70;99.90
25482;DHT22;13395;50.752;4.268;2022-09-16T06:41:48;14.70;99.90
25482;DHT22;13395;50.752;4.268;2022-09-16T06:44:13;14.70;99.90
25482;DHT22;13395;50.752;4.268;2022-09-16T06:46:39;14.80;99.90
25482;DHT22;13395;50.752;4.268;2022-09-16T06:49:05;14.90;99.90
25482;DHT22;13395;50.752;4.268;2022-09-16T06:51:30;15.00;99.90
25482;DHT22;13395;50.752;4.268;2022-09-16T06:54:03;15.00;99.90
25482;DHT22;13395;50.752;4.268;2022-09-16T06:56:29;15.10;99.90
25482;DHT22;13395;50.752;4.268;2022-09-16T06:58:54;15.20;99.90
25482;DHT22;13395;50.752;4.268;2022-09-16T07:01:22;15.30;99.90
25482;DHT22;13395;50.752;4.268;2022-09-16T07:03:49;15.20;99.90
25482;DHT22;13395;50.752;4.268;2022-09-16T07:06:15;15.20;99.90
25482;DHT22;13395;50.752;4.268;2022-09-16T07:08:41;15.20;99.90
25482;DHT22;13395;50.752;4.268;2022-09-16T07:11:11;15.20;99.90
25482;DHT22;13395;50.752;4.268;2022-09-16T07:13:37;15.20;99.90
25482;DHT22;13395;50.752;4.268;2022-09-16T07:16:04;15.20;99.90
25482;DHT22;13395;50.752;4.268;2022-09-16T07:18:30;15.40;99.90
25482;DHT22;13395;50.752;4.268;2022-09-16T07:21:02;15.40;99.90
25482;DHT22;13395;50.752;4.268;2022-09-16T07:23:29;15.50;99.90
25482;DHT22;13395;50.752;4.268;2022-09-16T07:26:02;15.70;99.90
25482;DHT22;13395;50.752;4.268;2022-09-16T07:28:28;15.70;99.90
25482;DHT22;13395;50.752;4.268;2022-09-16T07:30:54;15.60;99.90
25482;DHT22;13395;50.752;4.268;2022-09-16T07:33:22;15.60;99.90
25482;DHT22;13395;50.752;4.268;2022-09-16T07:35:48;15.50;99.90
25482;DHT22;13395;50.752;4.268;2022-09-16T07:38:13;15.50;99.90
25482;DHT22;13395;50.752;4.268;2022-09-16T07:40:39;15.30;99.90
25482;DHT22;13395;50.752;4.268;2022-09-16T07:43:05;15.30;99.90
25482;DHT22;13395;50.752;4.268;2022-09-16T07:45:31;15.30;99.90
25482;DHT22;13395;50.752;4.268;2022-09-16T07:47:56;15.30;99.90
25482;DHT22;13395;50.752;4.268;2022-09-16T07:50:22;15.20;99.90
25482;DHT22;13395;50.752;4.268;2022-09-16T07:52:47;15.00;99.90
25482;DHT22;13395;50.752;4.268;2022-09-16T07:55:13;14.90;99.90
25482;DHT22;13395;50.752;4.268;2022-09-16T07:57:41;15.10;99.90
25482;DHT22;13395;50.752;4.268;2022-09-16T08:00:07;15.20;99.90
25482;DHT22;13395;50.752;4.268;2022-09-16T08:02:33;15.70;99.90
25482;DHT22;13395;50.752;4.268;2022-09-16T08:04:58;16.40;99.90
25482;DHT22;13395;50.752;4.268;2022-09-16T08:07:24;17.40;99.90
25482;DHT22;13395;50.752;4.268;2022-09-16T08:09:49;19.20;99.90
25482;DHT22;13395;50.752;4.268;2022-09-16T08:12:15;21.30;99.90
25482;DHT22;13395;50.752;4.268;2022-09-16T08:14:40;22.10;99.90
25482;DHT22;13395;50.752;4.268;2022-09-16T08:17:06;22.10;99.90
25482;DHT22;13395;50.752;4.268;2022-09-16T08:19:32;21.70;99.90
25482;DHT22;13395;50.752;4.268;2022-09-16T08:21:57;22.20;99.90
25482;DHT22;13395;50.752;4.268;2022-09-16T08:24:23;23.10;99.90
25482;DHT22;13395;50.752;4.268;2022-09-16T08:26:48;23.40;98.40
25482;DHT22;13395;50.752;4.268;2022-09-16T08:29:14;23.40;97.30
25482;DHT22;13395;50.752;4.268;2022-09-16T08:31:39;23.00;97.10
25482;DHT22;13395;50.752;4.268;2022-09-16T08:34:05;22.40;97.60
25482;DHT22;13395;50.752;4.268;2022-09-16T08:36:31;21.40;98.60
25482;DHT22;13395;50.752;4.268;2022-09-16T08:38:59;21.10;99.60
25482;DHT22;13395;50.752;4.268;2022-09-16T08:49:08;19.20;99.90
25482;DHT22;13395;50.752;4.268;2022-09-16T08:51:38;19.10;99.90
25482;DHT22;13395;50.752;4.268;2022-09-16T08:54:05;18.60;99.90
25482;DHT22;13395;50.752;4.268;2022-09-16T08:56:34;18.30;99.90
25482;DHT22;13395;50.752;4.268;2022-09-16T08:59:00;18.10;99.90
25482;DHT22;13395;50.752;4.268;2022-09-16T09:03:55;17.30;99.90
25482;DHT22;13395;50.752;4.268;2022-09-16T09:09:29;16.70;99.90
25482;DHT22;13395;50.752;4.268;2022-09-16T09:27:25;15.80;99.90
25482;DHT22;13395;50.752;4.268;2022-09-16T09:32:27;15.90;99.90
25482;DHT22;13395;50.752;4.268;2022-09-16T09:37:42;16.30;99.90
25482;DHT22;13395;50.752;4.268;2022-09-16T09:40:58;18.90;99.90
25482;DHT22;13395;50.752;4.268;2022-09-16T09:43:13;22.00;99.90
25482;DHT22;13395;50.752;4.268;2022-09-16T09:45:49;25.10;99.40
25482;DHT22;13395;50.752;4.268;2022-09-16T09:48:28;27.40;92.10
25482;DHT22;13395;50.752;4.268;2022-09-16T09:50:55;28.00;87.70
25482;DHT22;13395;50.752;4.268;2022-09-16T09:53:25;28.50;84.50
25482;DHT22;13395;50.752;4.268;2022-09-16T09:55:53;29.30;80.70
25482;DHT22;13395;50.752;4.268;2022-09-16T09:58:24;30.00;76.80
25482;DHT22;13395;50.752;4.268;2022-09-16T10:00:51;29.80;74.70
25482;DHT22;13395;50.752;4.268;2022-09-16T10:03:23;29.60;72.70
25482;DHT22;13395;50.752;4.268;2022-09-16T10:05:49;28.30;74.60
25482;DHT22;13395;50.752;4.268;2022-09-16T10:08:17;27.50;76.30
25482;DHT22;13395;50.752;4.268;2022-09-16T10:10:45;27.10;75.40
25482;DHT22;13395;50.752;4.268;2022-09-16T10:13:11;27.40;77.00
25482;DHT22;13395;50.752;4.268;2022-09-16T10:15:37;26.20;77.30
25482;DHT22;13395;50.752;4.268;2022-09-16T10:18:23;25.00;81.30
25482;DHT22;13395;50.752;4.268;2022-09-16T10:23:24;22.90;88.10
25482;DHT22;13395;50.752;4.268;2022-09-16T10:26:01;22.30;90.20
25482;DHT22;13395;50.752;4.268;2022-09-16T10:28:27;21.90;91.00
25482;DHT22;13395;50.752;4.268;2022-09-16T10:30:54;21.00;92.30
25482;DHT22;13395;50.752;4.268;2022-09-16T10:33:22;20.20;93.20
25482;DHT22;13395;50.752;4.268;2022-09-16T10:35:53;19.80;95.00
25482;DHT22;13395;50.752;4.268;2022-09-16T10:38:21;19.20;96.40
25482;DHT22;13395;50.752;4.268;2022-09-16T10:40:55;18.70;99.90
25482;DHT22;13395;50.752;4.268;2022-09-16T10:43:25;18.30;99.90
25482;DHT22;13395;50.752;4.268;2022-09-16T10:45:52;18.10;99.90
25482;DHT22;13395;50.752;4.268;2022-09-16T10:48:20;18.30;99.90
25482;DHT22;13395;50.752;4.268;2022-09-16T10:50:56;18.70;99.90
25482;DHT22;13395;50.752;4.268;2022-09-16T10:53:29;19.30;99.90
25482;DHT22;13395;50.752;4.268;2022-09-16T10:55:56;21.50;96.60
25482;DHT22;13395;50.752;4.268;2022-09-16T10:58:22;23.90;91.70
25482;DHT22;13395;50.752;4.268;2022-09-16T11:00:50;25.50;87.20
25482;DHT22;13395;50.752;4.268;2022-09-16T11:16:11;27.20;75.40
25482;DHT22;13395;50.752;4.268;2022-09-16T11:26:43;26.20;74.80
25482;DHT22;13395;50.752;4.268;2022-09-16T11:31:51;23.80;80.30
25482;DHT22;13395;50.752;4.268;2022-09-16T11:35:10;23.00;82.60
25482;DHT22;13395;50.752;4.268;2022-09-16T11:37:26;22.40;86.30
25482;DHT22;13395;50.752;4.268;2022-09-16T11:47:48;18.40;94.50
25482;DHT22;13395;50.752;4.268;2022-09-16T11:56:14;17.20;99.90
25482;DHT22;13395;50.752;4.268;2022-09-16T11:58:42;16.60;99.90
25482;DHT22;13395;50.752;4.268;2022-09-16T12:01:24;16.50;99.90
25482;DHT22;13395;50.752;4.268;2022-09-16T12:04:03;16.30;99.90
25482;DHT22;13395;50.752;4.268;2022-09-16T12:06:30;16.10;99.90
25482;DHT22;13395;50.752;4.268;2022-09-16T12:09:08;16.10;99.90
25482;DHT22;13395;50.752;4.268;2022-09-16T12:11:37;15.90;99.90
25482;DHT22;13395;50.752;4.268;2022-09-16T12:14:07;16.10;99.90
25482;DHT22;13395;50.752;4.268;2022-09-16T12:19:05;17.20;99.90
25482;DHT22;13395;50.752;4.268;2022-09-16T12:21:37;17.70;99.90
25482;DHT22;13395;50.752;4.268;2022-09-16T12:24:05;18.00;99.90
25482;DHT22;13395;50.752;4.268;2022-09-16T12:26:36;18.90;99.90
25482;DHT22;13395;50.752;4.268;2022-09-16T12:29:09;19.90;99.90
25482;DHT22;13395;50.752;4.268;2022-09-16T12:32:00;20.00;99.90
25482;DHT22;13395;50.752;4.268;2022-09-16T12:34:25;21.00;99.90
25482;DHT22;13395;50.752;4.268;2022-09-16T12:39:36;23.20;99.30
25482;DHT22;13395;50.752;4.268;2022-09-16T12:45:00;21.90;99.00
25482;DHT22;13395;50.752;4.268;2022-09-16T12:53:09;21.60;99.80
25482;DHT22;13395;50.752;4.268;2022-09-16T13:00:42;21.70;98.70
25482;DHT22;13395;50.752;4.268;2022-09-16T13:03:15;21.80;98.40
25482;DHT22;13395;50.752;4.268;2022-09-16T13:05:44;21.90;98.10
25482;DHT22;13395;50.752;4.268;2022-09-16T13:08:20;22.10;97.70
25482;DHT22;13395;50.752;4.268;2022-09-16T13:10:53;22.20;98.80
25482;DHT22;13395;50.752;4.268;2022-09-16T13:13:21;22.00;97.70
25482;DHT22;13395;50.752;4.268;2022-09-16T13:15:58;22.00;97.40
25482;DHT22;13395;50.752;4.268;2022-09-16T13:18:24;21.40;97.20
25482;DHT22;13395;50.752;4.268;2022-09-16T13:21:05;20.90;97.70
25482;DHT22;13395;50.752;4.268;2022-09-16T13:23:34;20.70;98.60
25482;DHT22;13395;50.752;4.268;2022-09-16T13:26:05;20.10;99.70
25482;DHT22;13395;50.752;4.268;2022-09-16T13:33:42;18.60;99.90
25482;DHT22;13395;50.752;4.268;2022-09-16T13:38:50;17.80;99.90
25482;DHT22;13395;50.752;4.268;2022-09-16T13:46:45;16.70;99.90
25482;DHT22;13395;50.752;4.268;2022-09-16T13:49:14;16.60;99.90
25482;DHT22;13395;50.752;4.268;2022-09-16T13:51:43;16.50;99.90
25482;DHT22;13395;50.752;4.268;2022-09-16T13:57:54;16.50;99.90
25482;DHT22;13395;50.752;4.268;2022-09-16T14:15:36;17.10;99.90
25482;DHT22;13395;50.752;4.268;2022-09-16T14:18:04;17.30;99.90
25482;DHT22;13395;50.752;4.268;2022-09-16T14:20:31;17.30;99.90
25482;DHT22;13395;50.752;4.268;2022-09-16T14:23:01;17.40;99.90
25482;DHT22;13395;50.752;4.268;2022-09-16T14:25:28;17.50;99.90
25482;DHT22;13395;50.752;4.268;2022-09-16T14:28:07;17.50;99.90
25482;DHT22;13395;50.752;4.268;2022-09-16T14:30:32;17.70;99.90
25482;DHT22;13395;50.752;4.268;2022-09-16T14:32:59;17.70;99.90
25482;DHT22;13395;50.752;4.268;2022-09-16T14:35:25;17.50;99.90
25482;DHT22;13395;50.752;4.268;2022-09-16T14:38:01;17.50;99.90
25482;DHT22;13395;50.752;4.268;2022-09-16T14:40:27;17.50;99.90
25482;DHT22;13395;50.752;4.268;2022-09-16T14:42:58;17.60;99.90
25482;DHT22;13395;50.752;4.268;2022-09-16T14:45:24;17.60;99.90
25482;DHT22;13395;50.752;4.268;2022-09-16T14:47:50;17.50;99.90
25482;DHT22;13395;50.752;4.268;2022-09-16T14:50:29;16.90;99.90
25482;DHT22;13395;50.752;4.268;2022-09-16T14:55:23;16.30;99.90
25482;DHT22;13395;50.752;4.268;2022-09-16T14:57:48;16.10;99.90
25482;DHT22;13395;50.752;4.268;2022-09-16T15:00:15;16.00;99.90
25482;DHT22;13395;50.752;4.268;2022-09-16T15:05:15;15.80;99.90
25482;DHT22;13395;50.752;4.268;2022-09-16T15:07:41;16.00;99.90
25482;DHT22;13395;50.752;4.268;2022-09-16T15:10:13;16.10;99.90
25482;DHT22;13395;50.752;4.268;2022-09-16T15:12:46;16.40;99.90
25482;DHT22;13395;50.752;4.268;2022-09-16T15:15:19;16.40;99.90
25482;DHT22;13395;50.752;4.268;2022-09-16T15:18:02;16.40;99.90
25482;DHT22;13395;50.752;4.268;2022-09-16T15:20:29;16.40;99.90
25482;DHT22;13395;50.752;4.268;2022-09-16T15:22:56;16.30;99.90
25482;DHT22;13395;50.752;4.268;2022-09-16T15:25:23;16.20;99.90
25482;DHT22;13395;50.752;4.268;2022-09-16T15:27:49;16.20;99.90
25482;DHT22;13395;50.752;4.268;2022-09-16T15:30:21;16.20;99.90
25482;DHT22;13395;50.752;4.268;2022-09-16T15:32:48;16.20;99.90
25482;DHT22;13395;50.752;4.268;2022-09-16T15:35:25;16.30;99.90
25482;DHT22;13395;50.752;4.268;2022-09-16T15:37:52;16.20;99.90
25482;DHT22;13395;50.752;4.268;2022-09-16T15:45:27;16.30;99.90
25482;DHT22;13395;50.752;4.268;2022-09-16T15:47:54;16.40;99.90
25482;DHT22;13395;50.752;4.268;2022-09-16T15:50:21;16.50;99.90
25482;DHT22;13395;50.752;4.268;2022-09-16T15:52:58;16.40;99.90
25482;DHT22;13395;50.752;4.268;2022-09-16T15:55:27;16.40;99.90
25482;DHT22;13395;50.752;4.268;2022-09-16T15:57:59;16.00;99.90
25482;DHT22;13395;50.752;4.268;2022-09-16T16:00:26;16.00;99.90
25482;DHT22;13395;50.752;4.268;2022-09-16T16:02:59;16.10;99.90
25482;DHT22;13395;50.752;4.268;2022-09-16T16:05:26;16.10;99.90
25482;DHT22;13395;50.752;4.268;2022-09-16T16:07:56;16.10;99.90
25482;DHT22;13395;50.752;4.268;2022-09-16T16:10:24;16.00;99.90
25482;DHT22;13395;50.752;4.268;2022-09-16T16:12:50;16.00;99.90
25482;DHT22;13395;50.752;4.268;2022-09-16T16:15:17;15.80;99.90
25482;DHT22;13395;50.752;4.268;2022-09-16T16:17:44;15.90;99.90
25482;DHT22;13395;50.752;4.268;2022-09-16T16:20:11;16.00;99.90
25482;DHT22;13395;50.752;4.268;2022-09-16T16:22:38;15.90;99.90
25482;DHT22;13395;50.752;4.268;2022-09-16T16:25:03;16.10;99.90
25482;DHT22;13395;50.752;4.268;2022-09-16T16:27:29;16.00;99.90
25482;DHT22;13395;50.752;4.268;2022-09-16T16:29:54;16.00;99.90
25482;DHT22;13395;50.752;4.268;2022-09-16T16:32:20;15.90;99.90
25482;DHT22;13395;50.752;4.268;2022-09-16T16:34:46;16.00;99.90
25482;DHT22;13395;50.752;4.268;2022-09-16T16:37:14;16.00;99.90
25482;DHT22;13395;50.752;4.268;2022-09-16T16:39:41;15.90;99.90
25482;DHT22;13395;50.752;4.268;2022-09-16T16:42:08;15.80;99.90
25482;DHT22;13395;50.752;4.268;2022-09-16T16:44:34;15.60;99.90
25482;DHT22;13395;50.752;4.268;2022-09-16T16:46:59;15.50;99.90
25482;DHT22;13395;50.752;4.268;2022-09-16T16:49:25;15.60;99.90
25482;DHT22;13395;50.752;4.268;2022-09-16T16:51:51;15.70;99.90
25482;DHT22;13395;50.752;4.268;2022-09-16T16:54:19;15.60;99.90
25482;DHT22;13395;50.752;4.268;2022-09-16T16:56:45;15.70;99.90
25482;DHT22;13395;50.752;4.268;2022-09-16T16:59:11;15.50;99.90
25482;DHT22;13395;50.752;4.268;2022-09-16T17:01:36;15.30;99.90
25482;DHT22;13395;50.752;4.268;2022-09-16T17:04:02;15.20;99.90
25482;DHT22;13395;50.752;4.268;2022-09-16T17:06:28;15.30;99.90
25482;DHT22;13395;50.752;4.268;2022-09-16T17:08:54;15.30;99.90
25482;DHT22;13395;50.752;4.268;2022-09-16T17:11:20;14.90;99.90
25482;DHT22;13395;50.752;4.268;2022-09-16T17:13:48;14.80;99.90
25482;DHT22;13395;50.752;4.268;2022-09-16T17:16:15;14.80;99.90
25482;DHT22;13395;50.752;4.268;2022-09-16T17:18:41;14.90;99.90
25482;DHT22;13395;50.752;4.268;2022-09-16T17:21:09;14.70;99.90
25482;DHT22;13395;50.752;4.268;2022-09-16T17:23:35;14.90;99.90
25482;DHT22;13395;50.752;4.268;2022-09-16T17:26:01;14.70;99.90
25482;DHT22;13395;50.752;4.268;2022-09-16T17:28:27;14.70;99.90
25482;DHT22;13395;50.752;4.268;2022-09-16T17:30:53;14.60;99.90
25482;DHT22;13395;50.752;4.268;2022-09-16T17:33:18;14.50;99.90
25482;DHT22;13395;50.752;4.268;2022-09-16T17:35:44;14.50;99.90
25482;DHT22;13395;50.752;4.268;2022-09-16T17:38:11;14.40;99.90
25482;DHT22;13395;50.752;4.268;2022-09-16T17:40:37;14.30;99.90
25482;DHT22;13395;50.752;4.268;2022-09-16T17:43:03;14.30;99.90
25482;DHT22;13395;50.752;4.268;2022-09-16T17:45:31;14.20;99.90
25482;DHT22;13395;50.752;4.268;2022-09-16T17:47:56;14.20;99.90
25482;DHT22;13395;50.752;4.268;2022-09-16T17:50:23;14.30;99.90
25482;DHT22;13395;50.752;4.268;2022-09-16T17:52:49;14.30;99.90
25482;DHT22;13395;50.752;4.268;2022-09-16T17:55:14;14.50;99.90
25482;DHT22;13395;50.752;4.268;2022-09-16T17:57:40;14.60;99.90
25482;DHT22;13395;50.752;4.268;2022-09-16T18:00:06;14.60;99.90
25482;DHT22;13395;50.752;4.268;2022-09-16T18:02:33;14.50;99.90
25482;DHT22;13395;50.752;4.268;2022-09-16T18:04:58;14.50;99.90
25482;DHT22;13395;50.752;4.268;2022-09-16T18:07:24;14.50;99.90
25482;DHT22;13395;50.752;4.268;2022-09-16T18:09:49;14.50;99.90
25482;DHT22;13395;50.752;4.268;2022-09-16T18:12:15;14.50;99.90
25482;DHT22;13395;50.752;4.268;2022-09-16T18:14:40;14.40;99.90
25482;DHT22;13395;50.752;4.268;2022-09-16T18:17:06;14.50;99.90
25482;DHT22;13395;50.752;4.268;2022-09-16T18:19:31;14.40;99.90
25482;DHT22;13395;50.752;4.268;2022-09-16T18:21:57;14.40;99.90
25482;DHT22;13395;50.752;4.268;2022-09-16T18:24:22;14.30;99.90
25482;DHT22;13395;50.752;4.268;2022-09-16T18:26:48;14.10;99.90
25482;DHT22;13395;50.752;4.268;2022-09-16T18:29:14;14.00;99.90
25482;DHT22;13395;50.752;4.268;2022-09-16T18:31:40;13.90;99.90
25482;DHT22;13395;50.752;4.268;2022-09-16T18:34:06;13.70;99.90
25482;DHT22;13395;50.752;4.268;2022-09-16T18:36:32;13.70;99.90
25482;DHT22;13395;50.752;4.268;2022-09-16T18:38:59;13.60;99.90